sensor_id;sensor_type;location;lat;lon;timestamp;pressure;altitude;pressure_sealevel;temperature;humidity
2549;BME280;1284;53.520;10.248;2023-03-21T00:00:57;100853.00;;;10.98;96.53
2549;BME280;1284;53.520;10.248;2023-03-21T00:03:24;100847.41;;;11.06;96.16
2549;BME280;1284;53.520;10.248;2023-03-21T00:05:50;100841.06;;;10.79;96.60
2549;BME280;1284;53.520;10.248;2023-03-21T00:08:22;100843.06;;;10.67;98.04
2549;BME280;1284;53.520;10.248;2023-03-21T00:10:59;100836.97;;;10.85;97.37
2549;BME280;1284;53.520;10.248;2023-03-21T00:13:26;100838.38;;;10.79;97.96
2549;BME280;1284;53.520;10.248;2023-03-21T00:16:02;100837.16;;;10.77;97.40
2549;BME280;1284;53.520;10.248;2023-03-21T00:18:28;100840.56;;;10.74;98.17
2549;BME280;1284;53.520;10.248;2023-03-21T00:21:04;100838.09;;;10.84;97.76
2549;BME280;1284;53.520;10.248;2023-03-21T00:23:31;100837.53;;;10.95;97.58
2549;BME280;1284;53.520;10.248;2023-03-21T00:25:57;100833.38;;;10.97;96.72
2549;BME280;1284;53.520;10.248;2023-03-21T00:28:24;100836.88;;;10.82;97.27
2549;BME280;1284;53.520;10.248;2023-03-21T00:30:50;100833.63;;;10.92;97.12
2549;BME280;1284;53.520;10.248;2023-03-21T00:33:22;100827.53;;;10.76;96.88
2549;BME280;1284;53.520;10.248;2023-03-21T00:35:49;100831.91;;;10.84;97.65
2549;BME280;1284;53.520;10.248;2023-03-21T00:38:17;100823.78;;;11.00;97.48
2549;BME280;1284;53.520;10.248;2023-03-21T00:40:43;100833.16;;;11.06;96.69
2549;BME280;1284;53.520;10.248;2023-03-21T00:43:09;100829.19;;;11.00;96.78
2549;BME280;1284;53.520;10.248;2023-03-21T00:45:37;100822.25;;;10.99;96.66
2549;BME280;1284;53.520;10.248;2023-03-21T00:48:03;100825.41;;;10.85;97.60
2549;BME280;1284;53.520;10.248;2023-03-21T00:50:29;100829.22;;;10.84;97.99
2549;BME280;1284;53.520;10.248;2023-03-21T00:52:57;100821.75;;;10.93;98.13
2549;BME280;1284;53.520;10.248;2023-03-21T00:55:23;100818.97;;;10.89;97.32
2549;BME280;1284;53.520;10.248;2023-03-21T00:57:48;100816.06;;;10.98;97.26
2549;BME280;1284;53.520;10.248;2023-03-21T01:00:15;100816.50;;;11.00;97.26
2549;BME280;1284;53.520;10.248;2023-03-21T01:02:42;100812.09;;;10.92;97.26
2549;BME280;1284;53.520;10.248;2023-03-21T01:05:26;100811.88;;;10.81;98.10
2549;BME280;1284;53.520;10.248;2023-03-21T01:08:12;100803.56;;;10.90;98.07
2549;BME280;1284;53.520;10.248;2023-03-21T01:10:43;100810.59;;;10.95;97.47
2549;BME280;1284;53.520;10.248;2023-03-21T01:13:11;100803.94;;;10.88;97.44
2549;BME280;1284;53.520;10.248;2023-03-21T01:15:44;100801.22;;;10.88;98.64
2549;BME280;1284;53.520;10.248;2023-03-21T01:18:10;100802.44;;;10.91;98.38
2549;BME280;1284;53.520;10.248;2023-03-21T01:20:35;100811.38;;;10.95;97.50
2549;BME280;1284;53.520;10.248;2023-03-21T01:23:01;100802.88;;;10.93;98.08
2549;BME280;1284;53.520;10.248;2023-03-21T01:25:27;100809.06;;;10.94;97.87
2549;BME280;1284;53.520;10.248;2023-03-21T01:27:52;100796.56;;;11.05;97.68
2549;BME280;1284;53.520;10.248;2023-03-21T01:30:19;100796.09;;;10.99;97.94
2549;BME280;1284;53.520;10.248;2023-03-21T01:32:45;100795.78;;;11.04;97.75
2549;BME280;1284;53.520;10.248;2023-03-21T01:35:11;100796.16;;;11.03;98.32
2549;BME280;1284;53.520;10.248;2023-03-21T01:37:36;100803.25;;;11.11;98.29
2549;BME280;1284;53.520;10.248;2023-03-21T01:40:03;100802.41;;;11.07;97.63
2549;BME280;1284;53.520;10.248;2023-03-21T01:42:29;100808.16;;;11.05;97.79
2549;BME280;1284;53.520;10.248;2023-03-21T01:44:58;100801.09;;;11.01;98.05
2549;BME280;1284;53.520;10.248;2023-03-21T01:47:31;100803.09;;;11.04;98.25
2549;BME280;1284;53.520;10.248;2023-03-21T01:50:06;100798.91;;;11.06;98.56
2549;BME280;1284;53.520;10.248;2023-03-21T01:52:38;100799.41;;;11.12;96.94
2549;BME280;1284;53.520;10.248;2023-03-21T01:55:10;100796.09;;;10.99;98.09
2549;BME280;1284;53.520;10.248;2023-03-21T01:57:54;100802.09;;;10.93;98.90
2549;BME280;1284;53.520;10.248;2023-03-21T02:00:23;100796.94;;;11.03;98.50
2549;BME280;1284;53.520;10.248;2023-03-21T02:03:04;100794.75;;;11.09;97.81
2549;BME280;1284;53.520;10.248;2023-03-21T02:05:59;100790.63;;;11.15;97.27
2549;BME280;1284;53.520;10.248;2023-03-21T02:08:30;100789.13;;;10.98;98.20
2549;BME280;1284;53.520;10.248;2023-03-21T02:10:57;100789.97;;;11.02;98.44
2549;BME280;1284;53.520;10.248;2023-03-21T02:13:35;100781.81;;;10.99;98.61
2549;BME280;1284;53.520;10.248;2023-03-21T02:22:27;100774.22;;;11.04;98.68
2549;BME280;1284;53.520;10.248;2023-03-21T02:27:50;100771.47;;;11.01;99.64
2549;BME280;1284;53.520;10.248;2023-03-21T02:40:31;100756.72;;;10.95;99.72
2549;BME280;1284;53.520;10.248;2023-03-21T02:46:18;100762.03;;;10.91;100.00
2549;BME280;1284;53.520;10.248;2023-03-21T02:49:09;100755.72;;;10.83;100.00
2549;BME280;1284;53.520;10.248;2023-03-21T02:51:37;100754.38;;;10.93;100.00
2549;BME280;1284;53.520;10.248;2023-03-21T02:54:08;100755.06;;;11.09;99.21
2549;BME280;1284;53.520;10.248;2023-03-21T02:56:35;100752.88;;;10.96;99.27
2549;BME280;1284;53.520;10.248;2023-03-21T02:59:04;100756.72;;;10.95;100.00
2549;BME280;1284;53.520;10.248;2023-03-21T03:01:31;100757.94;;;10.97;99.99
2549;BME280;1284;53.520;10.248;2023-03-21T03:03:57;100757.78;;;10.90;100.00
2549;BME280;1284;53.520;10.248;2023-03-21T03:06:27;100743.13;;;10.87;100.00
2549;BME280;1284;53.520;10.248;2023-03-21T03:11:28;100745.81;;;10.87;100.00
2549;BME280;1284;53.520;10.248;2023-03-21T03:14:17;100748.22;;;10.93;100.00
2549;BME280;1284;53.520;10.248;2023-03-21T03:19:58;100741.91;;;11.04;99.92
2549;BME280;1284;53.520;10.248;2023-03-21T03:22:41;100748.50;;;11.07;100.00
2549;BME280;1284;53.520;10.248;2023-03-21T03:25:13;100747.84;;;11.13;100.00
2549;BME280;1284;53.520;10.248;2023-03-21T03:27:46;100748.06;;;11.05;100.00
2549;BME280;1284;53.520;10.248;2023-03-21T03:30:12;100739.53;;;11.22;99.61
2549;BME280;1284;53.520;10.248;2023-03-21T03:32:44;100743.66;;;11.16;99.53
2549;BME280;1284;53.520;10.248;2023-03-21T03:35:17;100735.72;;;11.04;99.66
2549;BME280;1284;53.520;10.248;2023-03-21T03:37:50;100737.13;;;10.98;100.00
2549;BME280;1284;53.520;10.248;2023-03-21T03:40:24;100736.00;;;10.99;100.00
2549;BME280;1284;53.520;10.248;2023-03-21T03:43:08;100737.56;;;11.00;100.00
2549;BME280;1284;53.520;10.248;2023-03-21T03:48:25;100724.81;;;10.97;100.00
2549;BME280;1284;53.520;10.248;2023-03-21T03:51:01;100721.31;;;10.96;100.00
2549;BME280;1284;53.520;10.248;2023-03-21T03:53:58;100721.13;;;11.05;100.00
2549;BME280;1284;53.520;10.248;2023-03-21T03:56:27;100723.53;;;11.10;100.00
2549;BME280;1284;53.520;10.248;2023-03-21T03:58:55;100723.25;;;11.15;99.50
2549;BME280;1284;53.520;10.248;2023-03-21T04:01:33;100737.41;;;11.12;100.00
2549;BME280;1284;53.520;10.248;2023-03-21T04:03:59;100732.81;;;11.12;99.43
2549;BME280;1284;53.520;10.248;2023-03-21T04:06:25;100734.22;;;11.06;100.00
2549;BME280;1284;53.520;10.248;2023-03-21T04:08:56;100731.75;;;11.17;99.24
2549;BME280;1284;53.520;10.248;2023-03-21T04:11:22;100727.63;;;11.23;98.89
2549;BME280;1284;53.520;10.248;2023-03-21T04:13:51;100742.13;;;11.15;99.31
2549;BME280;1284;53.520;10.248;2023-03-21T04:16:20;100731.19;;;11.08;100.00
2549;BME280;1284;53.520;10.248;2023-03-21T04:18:47;100736.34;;;11.16;99.77
2549;BME280;1284;53.520;10.248;2023-03-21T04:21:16;100731.59;;;11.10;100.00
2549;BME280;1284;53.520;10.248;2023-03-21T04:23:42;100738.41;;;11.04;100.00
2549;BME280;1284;53.520;10.248;2023-03-21T04:26:07;100735.09;;;10.91;100.00
2549;BME280;1284;53.520;10.248;2023-03-21T04:28:38;100730.34;;;10.84;100.00
2549;BME280;1284;53.520;10.248;2023-03-21T04:31:19;100725.94;;;10.96;100.00
2549;BME280;1284;53.520;10.248;2023-03-21T04:33:49;100728.72;;;10.99;100.00
2549;BME280;1284;53.520;10.248;2023-03-21T04:36:14;100719.84;;;10.99;100.00
2549;BME280;1284;53.520;10.248;2023-03-21T04:38:52;100725.16;;;10.95;100.00
2549;BME280;1284;53.520;10.248;2023-03-21T04:41:18;100722.47;;;10.95;100.00
2549;BME280;1284;53.520;10.248;2023-03-21T04:43:44;100730.63;;;10.99;100.00
2549;BME280;1284;53.520;10.248;2023-03-21T04:46:10;100735.44;;;11.09;100.00
2549;BME280;1284;53.520;10.248;2023-03-21T04:48:36;100723.94;;;11.12;100.00
2549;BME280;1284;53.520;10.248;2023-03-21T04:51:03;100732.31;;;11.07;100.00
2549;BME280;1284;53.520;10.248;2023-03-21T04:53:29;100725.72;;;11.04;100.00
2549;BME280;1284;53.520;10.248;2023-03-21T04:55:55;100728.22;;;10.94;100.00
2549;BME280;1284;53.520;10.248;2023-03-21T04:58:23;100720.84;;;10.71;100.00
2549;BME280;1284;53.520;10.248;2023-03-21T05:00:48;100727.69;;;10.88;100.00
2549;BME280;1284;53.520;10.248;2023-03-21T05:03:17;100727.94;;;10.99;100.00
2549;BME280;1284;53.520;10.248;2023-03-21T05:05:47;100732.16;;;11.00;100.00
2549;BME280;1284;53.520;10.248;2023-03-21T05:08:13;100730.91;;;11.13;100.00
2549;BME280;1284;53.520;10.248;2023-03-21T05:10:40;100724.50;;;11.21;100.00
2549;BME280;1284;53.520;10.248;2023-03-21T05:13:06;100713.59;;;11.14;100.00
2549;BME280;1284;53.520;10.248;2023-03-21T05:15:32;100718.63;;;11.15;100.00
2549;BME280;1284;53.520;10.248;2023-03-21T05:17:58;100717.22;;;11.02;100.00
2549;BME280;1284;53.520;10.248;2023-03-21T05:20:24;100723.88;;;11.08;100.00
2549;BME280;1284;53.520;10.248;2023-03-21T05:22:51;100731.66;;;11.13;100.00
2549;BME280;1284;53.520;10.248;2023-03-21T05:25:17;100720.13;;;11.13;100.00
2549;BME280;1284;53.520;10.248;2023-03-21T05:28:00;100722.88;;;11.16;100.00
2549;BME280;1284;53.520;10.248;2023-03-21T05:30:28;100718.19;;;11.13;100.00
2549;BME280;1284;53.520;10.248;2023-03-21T05:32:57;100720.16;;;10.94;100.00
2549;BME280;1284;53.520;10.248;2023-03-21T05:38:11;100708.91;;;11.11;100.00
2549;BME280;1284;53.520;10.248;2023-03-21T05:40:48;100711.63;;;11.11;100.00
2549;BME280;1284;53.520;10.248;2023-03-21T05:43:16;100703.81;;;11.06;100.00
2549;BME280;1284;53.520;10.248;2023-03-21T05:45:41;100720.97;;;10.98;100.00
2549;BME280;1284;53.520;10.248;2023-03-21T05:48:08;100711.31;;;11.16;100.00
2549;BME280;1284;53.520;10.248;2023-03-21T05:50:47;100710.19;;;11.17;100.00
2549;BME280;1284;53.520;10.248;2023-03-21T05:53:17;100706.22;;;11.11;100.00
2549;BME280;1284;53.520;10.248;2023-03-21T05:55:42;100708.00;;;11.03;100.00
2549;BME280;1284;53.520;10.248;2023-03-21T05:58:13;100708.91;;;11.11;100.00
2549;BME280;1284;53.520;10.248;2023-03-21T06:00:46;100704.13;;;11.23;100.00
2549;BME280;1284;53.520;10.248;2023-03-21T06:03:22;100703.81;;;10.86;100.00
2549;BME280;1284;53.520;10.248;2023-03-21T06:06:17;100717.50;;;10.97;100.00
2549;BME280;1284;53.520;10.248;2023-03-21T06:08:54;100711.75;;;10.99;100.00
2549;BME280;1284;53.520;10.248;2023-03-21T06:11:27;100712.63;;;11.03;100.00
2549;BME280;1284;53.520;10.248;2023-03-21T06:14:14;100702.31;;;11.08;100.00
2549;BME280;1284;53.520;10.248;2023-03-21T06:16:41;100702.44;;;11.15;100.00
2549;BME280;1284;53.520;10.248;2023-03-21T06:19:07;100706.91;;;11.08;100.00
2549;BME280;1284;53.520;10.248;2023-03-21T06:21:55;100707.72;;;11.08;100.00
2549;BME280;1284;53.520;10.248;2023-03-21T06:24:21;100707.31;;;11.29;100.00
2549;BME280;1284;53.520;10.248;2023-03-21T06:26:47;100703.34;;;11.23;100.00
2549;BME280;1284;53.520;10.248;2023-03-21T06:29:13;100706.50;;;11.06;100.00
2549;BME280;1284;53.520;10.248;2023-03-21T06:31:44;100695.97;;;10.97;100.00
2549;BME280;1284;53.520;10.248;2023-03-21T06:34:09;100695.59;;;10.99;100.00
2549;BME280;1284;53.520;10.248;2023-03-21T06:36:36;100696.03;;;10.62;100.00
2549;BME280;1284;53.520;10.248;2023-03-21T06:39:03;100691.13;;;10.49;100.00
2549;BME280;1284;53.520;10.248;2023-03-21T06:41:29;100693.19;;;10.74;100.00
2549;BME280;1284;53.520;10.248;2023-03-21T06:44:01;100694.63;;;10.87;100.00
2549;BME280;1284;53.520;10.248;2023-03-21T06:46:31;100689.28;;;11.10;100.00
2549;BME280;1284;53.520;10.248;2023-03-21T06:48:57;100696.34;;;11.18;100.00
2549;BME280;1284;53.520;10.248;2023-03-21T06:51:24;100689.59;;;11.28;100.00
2549;BME280;1284;53.520;10.248;2023-03-21T06:54:03;100689.59;;;11.28;100.00
2549;BME280;1284;53.520;10.248;2023-03-21T06:56:37;100691.88;;;11.26;100.00
2549;BME280;1284;53.520;10.248;2023-03-21T06:59:03;100696.84;;;11.24;100.00
2549;BME280;1284;53.520;10.248;2023-03-21T07:02:04;100700.22;;;11.21;100.00
2549;BME280;1284;53.520;10.248;2023-03-21T07:04:33;100698.06;;;11.26;100.00
2549;BME280;1284;53.520;10.248;2023-03-21T07:07:00;100696.69;;;11.36;100.00
2549;BME280;1284;53.520;10.248;2023-03-21T07:09:27;100695.00;;;11.28;100.00
2549;BME280;1284;53.520;10.248;2023-03-21T07:11:55;100695.84;;;11.32;100.00
2549;BME280;1284;53.520;10.248;2023-03-21T07:14:25;100702.41;;;11.34;100.00
2549;BME280;1284;53.520;10.248;2023-03-21T07:16:52;100691.13;;;11.29;100.00
2549;BME280;1284;53.520;10.248;2023-03-21T07:19:17;100701.81;;;11.22;100.00
2549;BME280;1284;53.520;10.248;2023-03-21T07:21:43;100695.44;;;11.11;100.00
2549;BME280;1284;53.520;10.248;2023-03-21T07:24:08;100699.84;;;11.19;100.00
2549;BME280;1284;53.520;10.248;2023-03-21T07:26:34;100690.06;;;11.33;100.00
2549;BME280;1284;53.520;10.248;2023-03-21T07:29:02;100690.81;;;11.30;100.00
2549;BME280;1284;53.520;10.248;2023-03-21T07:31:28;100686.38;;;11.19;100.00
2549;BME280;1284;53.520;10.248;2023-03-21T07:33:54;100693.34;;;11.23;100.00
2549;BME280;1284;53.520;10.248;2023-03-21T07:36:20;100699.31;;;11.32;100.00
2549;BME280;1284;53.520;10.248;2023-03-21T07:38:47;100688.94;;;11.34;100.00
2549;BME280;1284;53.520;10.248;2023-03-21T07:41:13;100702.19;;;11.43;100.00
2549;BME280;1284;53.520;10.248;2023-03-21T07:43:39;100698.00;;;11.45;100.00
2549;BME280;1284;53.520;10.248;2023-03-21T07:46:08;100696.78;;;11.43;100.00
2549;BME280;1284;53.520;10.248;2023-03-21T07:48:33;100698.59;;;11.35;100.00
2549;BME280;1284;53.520;10.248;2023-03-21T07:50:59;100699.91;;;11.45;100.00
2549;BME280;1284;53.520;10.248;2023-03-21T07:53:26;100702.06;;;11.58;100.00
2549;BME280;1284;53.520;10.248;2023-03-21T07:55:53;100698.72;;;11.65;100.00
2549;BME280;1284;53.520;10.248;2023-03-21T07:58:21;100696.84;;;11.46;100.00
2549;BME280;1284;53.520;10.248;2023-03-21T08:00:47;100698.00;;;11.45;100.00
2549;BME280;1284;53.520;10.248;2023-03-21T08:03:13;100701.66;;;11.56;100.00
2549;BME280;1284;53.520;10.248;2023-03-21T08:05:39;100700.69;;;11.45;100.00
2549;BME280;1284;53.520;10.248;2023-03-21T08:08:05;100698.06;;;11.49;100.00
2549;BME280;1284;53.520;10.248;2023-03-21T08:10:31;100700.59;;;11.61;100.00
2549;BME280;1284;53.520;10.248;2023-03-21T08:12:57;100703.00;;;11.66;100.00
2549;BME280;1284;53.520;10.248;2023-03-21T08:15:22;100705.00;;;11.69;100.00
2549;BME280;1284;53.520;10.248;2023-03-21T08:17:48;100697.16;;;11.64;100.00
2549;BME280;1284;53.520;10.248;2023-03-21T08:20:16;100700.03;;;11.52;100.00
2549;BME280;1284;53.520;10.248;2023-03-21T08:22:42;100698.44;;;11.70;100.00
2549;BME280;1284;53.520;10.248;2023-03-21T08:25:15;100690.34;;;11.47;100.00
2549;BME280;1284;53.520;10.248;2023-03-21T08:27:43;100694.63;;;11.52;100.00
2549;BME280;1284;53.520;10.248;2023-03-21T08:30:10;100698.22;;;11.59;100.00
2549;BME280;1284;53.520;10.248;2023-03-21T08:32:37;100689.31;;;11.55;100.00
2549;BME280;1284;53.520;10.248;2023-03-21T08:35:05;100697.16;;;11.64;100.00
2549;BME280;1284;53.520;10.248;2023-03-21T08:37:35;100689.31;;;11.78;100.00
2549;BME280;1284;53.520;10.248;2023-03-21T08:40:00;100694.41;;;11.83;100.00
2549;BME280;1284;53.520;10.248;2023-03-21T08:42:26;100690.75;;;11.72;100.00
2549;BME280;1284;53.520;10.248;2023-03-21T08:44:51;100678.06;;;11.72;100.00
2549;BME280;1284;53.520;10.248;2023-03-21T08:47:17;100686.69;;;11.82;100.00
2549;BME280;1284;53.520;10.248;2023-03-21T08:49:42;100689.06;;;11.87;100.00
2549;BME280;1284;53.520;10.248;2023-03-21T08:52:10;100691.66;;;11.79;100.00
2549;BME280;1284;53.520;10.248;2023-03-21T08:54:36;100683.78;;;11.94;100.00
2549;BME280;1284;53.520;10.248;2023-03-21T08:57:02;100683.19;;;11.81;100.00
2549;BME280;1284;53.520;10.248;2023-03-21T08:59:28;100692.19;;;11.89;100.00
2549;BME280;1284;53.520;10.248;2023-03-21T09:01:53;100693.56;;;11.79;100.00
2549;BME280;1284;53.520;10.248;2023-03-21T09:04:19;100681.47;;;11.92;100.00
2549;BME280;1284;53.520;10.248;2023-03-21T09:06:45;100681.13;;;11.97;100.00
2549;BME280;1284;53.520;10.248;2023-03-21T09:09:12;100690.16;;;12.08;100.00
2549;BME280;1284;53.520;10.248;2023-03-21T09:11:37;100689.03;;;12.09;100.00
2549;BME280;1284;53.520;10.248;2023-03-21T09:14:04;100679.38;;;12.08;100.00
2549;BME280;1284;53.520;10.248;2023-03-21T09:16:29;100686.34;;;12.09;100.00
2549;BME280;1284;53.520;10.248;2023-03-21T09:18:55;100683.00;;;11.93;100.00
2549;BME280;1284;53.520;10.248;2023-03-21T09:21:24;100678.63;;;11.85;100.00
2549;BME280;1284;53.520;10.248;2023-03-21T09:23:52;100677.03;;;11.81;100.00
2549;BME280;1284;53.520;10.248;2023-03-21T09:26:21;100682.69;;;11.98;100.00
2549;BME280;1284;53.520;10.248;2023-03-21T09:28:47;100685.38;;;11.98;100.00
2549;BME280;1284;53.520;10.248;2023-03-21T09:31:14;100690.06;;;12.01;100.00
2549;BME280;1284;53.520;10.248;2023-03-21T09:33:50;100686.13;;;11.95;100.00
2549;BME280;1284;53.520;10.248;2023-03-21T09:36:17;100692.56;;;12.13;100.00
2549;BME280;1284;53.520;10.248;2023-03-21T09:38:46;100684.41;;;12.10;100.00
2549;BME280;1284;53.520;10.248;2023-03-21T09:46:56;100680.41;;;12.00;100.00
2549;BME280;1284;53.520;10.248;2023-03-21T09:49:33;100678.94;;;11.80;100.00
2549;BME280;1284;53.520;10.248;2023-03-21T09:52:09;100680.31;;;11.93;100.00
2549;BME280;1284;53.520;10.248;2023-03-21T09:54:40;100680.31;;;11.93;100.00
2549;BME280;1284;53.520;10.248;2023-03-21T09:57:35;100679.94;;;11.95;100.00
2549;BME280;1284;53.520;10.248;2023-03-21T10:00:06;100676.81;;;11.93;100.00
2549;BME280;1284;53.520;10.248;2023-03-21T10:02:43;100683.22;;;12.07;100.00
2549;BME280;1284;53.520;10.248;2023-03-21T10:05:22;100670.22;;;12.16;100.00
2549;BME280;1284;53.520;10.248;2023-03-21T10:10:28;100674.16;;;12.48;100.00
2549;BME280;1284;53.520;10.248;2023-03-21T10:12:56;100670.56;;;12.41;100.00
2549;BME280;1284;53.520;10.248;2023-03-21T10:15:24;100666.50;;;12.54;100.00
2549;BME280;1284;53.520;10.248;2023-03-21T10:17:59;100667.31;;;12.58;100.00
2549;BME280;1284;53.520;10.248;2023-03-21T10:20:30;100667.63;;;12.53;100.00
2549;BME280;1284;53.520;10.248;2023-03-21T10:22:59;100669.97;;;12.54;100.00
2549;BME280;1284;53.520;10.248;2023-03-21T10:25:34;100666.84;;;12.52;100.00
2549;BME280;1284;53.520;10.248;2023-03-21T10:28:01;100663.53;;;12.66;100.00
2549;BME280;1284;53.520;10.248;2023-03-21T10:30:29;100657.31;;;12.62;100.00
2549;BME280;1284;53.520;10.248;2023-03-21T10:32:58;100658.63;;;12.72;100.00
2549;BME280;1284;53.520;10.248;2023-03-21T10:35:29;100652.69;;;12.62;100.00
2549;BME280;1284;53.520;10.248;2023-03-21T10:37:59;100663.88;;;12.61;100.00
2549;BME280;1284;53.520;10.248;2023-03-21T10:40:26;100653.84;;;12.61;100.00
2549;BME280;1284;53.520;10.248;2023-03-21T10:42:54;100663.50;;;12.62;100.00
2549;BME280;1284;53.520;10.248;2023-03-21T10:45:21;100655.50;;;12.69;100.00
2549;BME280;1284;53.520;10.248;2023-03-21T10:47:48;100654.75;;;12.73;100.00
2549;BME280;1284;53.520;10.248;2023-03-21T10:50:16;100651.88;;;12.58;100.00
2549;BME280;1284;53.520;10.248;2023-03-21T10:52:49;100649.22;;;12.62;100.00
2549;BME280;1284;53.520;10.248;2023-03-21T10:57:45;100653.09;;;12.64;100.00
2549;BME280;1284;53.520;10.248;2023-03-21T11:00:29;100651.63;;;12.70;100.00
2549;BME280;1284;53.520;10.248;2023-03-21T11:02:58;100649.53;;;12.57;100.00
2549;BME280;1284;53.520;10.248;2023-03-21T11:08:04;100639.28;;;12.69;100.00
2549;BME280;1284;53.520;10.248;2023-03-21T11:10:36;100637.00;;;12.72;100.00
2549;BME280;1284;53.520;10.248;2023-03-21T11:13:07;100637.75;;;12.72;100.00
2549;BME280;1284;53.520;10.248;2023-03-21T11:15:56;100629.59;;;12.68;100.00
2549;BME280;1284;53.520;10.248;2023-03-21T11:18:26;100622.34;;;12.76;100.00
2549;BME280;1284;53.520;10.248;2023-03-21T11:20:57;100626.31;;;12.86;100.00
2549;BME280;1284;53.520;10.248;2023-03-21T11:23:29;100637.00;;;12.72;100.00
2549;BME280;1284;53.520;10.248;2023-03-21T11:25:58;100625.19;;;12.53;100.00
2549;BME280;1284;53.520;10.248;2023-03-21T11:28:26;100621.06;;;12.63;100.00
2549;BME280;1284;53.520;10.248;2023-03-21T11:30:59;100634.56;;;12.63;100.00
2549;BME280;1284;53.520;10.248;2023-03-21T11:33:27;100626.88;;;12.65;100.00
2549;BME280;1284;53.520;10.248;2023-03-21T11:38:38;100623.16;;;12.77;100.00
2549;BME280;1284;53.520;10.248;2023-03-21T11:41:04;100613.19;;;12.84;100.00
2549;BME280;1284;53.520;10.248;2023-03-21T11:43:34;100618.72;;;12.95;100.00
2549;BME280;1284;53.520;10.248;2023-03-21T11:48:28;100609.75;;;12.87;100.00
2549;BME280;1284;53.520;10.248;2023-03-21T11:51:04;100609.78;;;12.91;100.00
2549;BME280;1284;53.520;10.248;2023-03-21T11:53:59;100598.53;;;12.85;100.00
2549;BME280;1284;53.520;10.248;2023-03-21T11:56:28;100601.72;;;12.98;100.00
2549;BME280;1284;53.520;10.248;2023-03-21T12:10:10;100588.72;;;13.07;100.00
2549;BME280;1284;53.520;10.248;2023-03-21T12:26:05;100580.09;;;12.94;100.00
2549;BME280;1284;53.520;10.248;2023-03-21T12:39:35;100559.78;;;13.11;100.00
2549;BME280;1284;53.520;10.248;2023-03-21T12:42:08;100558.38;;;13.24;100.00
2549;BME280;1284;53.520;10.248;2023-03-21T12:44:38;100556.66;;;13.09;100.00
2549;BME280;1284;53.520;10.248;2023-03-21T12:47:11;100557.09;;;13.14;100.00
2549;BME280;1284;53.520;10.248;2023-03-21T12:49:42;100557.59;;;13.27;100.00
2549;BME280;1284;53.520;10.248;2023-03-21T12:52:18;100553.22;;;13.12;100.00
2549;BME280;1284;53.520;10.248;2023-03-21T12:55:00;100552.47;;;13.15;100.00
2549;BME280;1284;53.520;10.248;2023-03-21T12:57:33;100540.19;;;13.24;100.00
2549;BME280;1284;53.520;10.248;2023-03-21T13:02:59;100534.41;;;13.26;100.00
2549;BME280;1284;53.520;10.248;2023-03-21T13:06:12;100536.72;;;13.24;100.00
2549;BME280;1284;53.520;10.248;2023-03-21T13:10:47;100527.22;;;13.00;100.00
2549;BME280;1284;53.520;10.248;2023-03-21T13:13:25;100527.31;;;13.07;100.00
2549;BME280;1284;53.520;10.248;2023-03-21T13:29:24;100517.78;;;13.24;100.00
2549;BME280;1284;53.520;10.248;2023-03-21T13:31:53;100514.22;;;13.13;100.00
2549;BME280;1284;53.520;10.248;2023-03-21T13:34:20;100508.94;;;13.30;100.00
2549;BME280;1284;53.520;10.248;2023-03-21T13:36:47;100509.72;;;13.31;100.00
2549;BME280;1284;53.520;10.248;2023-03-21T13:39:19;100502.72;;;13.23;100.00
2549;BME280;1284;53.520;10.248;2023-03-21T13:41:46;100506.59;;;13.25;100.00
2549;BME280;1284;53.520;10.248;2023-03-21T13:44:40;100503.75;;;13.08;100.00
2549;BME280;1284;53.520;10.248;2023-03-21T13:52:38;100492.94;;;13.04;100.00
2549;BME280;1284;53.520;10.248;2023-03-21T13:55:14;100496.06;;;13.10;100.00
2549;BME280;1284;53.520;10.248;2023-03-21T13:57:45;100493.00;;;13.18;100.00
2549;BME280;1284;53.520;10.248;2023-03-21T14:00:16;100490.66;;;13.10;100.00
2549;BME280;1284;53.520;10.248;2023-03-21T14:03:05;100490.66;;;13.13;100.00
2549;BME280;1284;53.520;10.248;2023-03-21T14:05:32;100497.94;;;13.06;100.00
2549;BME280;1284;53.520;10.248;2023-03-21T14:08:01;100493.38;;;13.13;100.00
2549;BME280;1284;53.520;10.248;2023-03-21T14:10:33;100483.31;;;13.10;100.00
2549;BME280;1284;53.520;10.248;2023-03-21T14:13:02;100476.06;;;13.25;100.00
2549;BME280;1284;53.520;10.248;2023-03-21T14:15:43;100487.53;;;13.08;100.00
2549;BME280;1284;53.520;10.248;2023-03-21T14:18:14;100471.44;;;13.25;100.00
2549;BME280;1284;53.520;10.248;2023-03-21T14:20:40;100482.16;;;13.15;100.00
2549;BME280;1284;53.520;10.248;2023-03-21T14:23:15;100469.44;;;13.19;100.00
2549;BME280;1284;53.520;10.248;2023-03-21T14:25:42;100474.47;;;13.20;100.00
2549;BME280;1284;53.520;10.248;2023-03-21T14:28:17;100479.06;;;13.13;100.00
2549;BME280;1284;53.520;10.248;2023-03-21T14:30:44;100472.16;;;13.19;100.00
2549;BME280;1284;53.520;10.248;2023-03-21T14:35:47;100465.63;;;13.23;100.00
2549;BME280;1284;53.520;10.248;2023-03-21T14:38:31;100464.81;;;13.19;100.00
2549;BME280;1284;53.520;10.248;2023-03-21T14:40:57;100472.19;;;13.26;100.00
2549;BME280;1284;53.520;10.248;2023-03-21T14:43:24;100465.16;;;13.14;100.00
2549;BME280;1284;53.520;10.248;2023-03-21T14:45:54;100465.47;;;13.02;100.00
2549;BME280;1284;53.520;10.248;2023-03-21T14:48:30;100455.13;;;13.15;100.00
2549;BME280;1284;53.520;10.248;2023-03-21T14:51:00;100458.09;;;13.03;100.00
2549;BME280;1284;53.520;10.248;2023-03-21T14:53:31;100459.84;;;13.28;100.00
2549;BME280;1284;53.520;10.248;2023-03-21T14:56:09;100454.41;;;13.18;100.00
2549;BME280;1284;53.520;10.248;2023-03-21T14:58:41;100442.41;;;13.19;100.00
2549;BME280;1284;53.520;10.248;2023-03-21T15:01:24;100445.09;;;13.12;100.00
2549;BME280;1284;53.520;10.248;2023-03-21T15:03:52;100443.00;;;12.95;100.00